createdAt,value
2018-04-12T00:04:18.255Z,28.2
2018-04-12T00:14:32.392Z,24.4
2018-04-12T00:24:47.577Z,19.5
2018-04-12T00:35:01.659Z,24.1
2018-04-12T00:45:15.990Z,21.0
2018-04-12T00:56:01.977Z,25.1
2018-04-12T01:06:29.439Z,20.6
2018-04-12T01:16:43.308Z,22.5
2018-04-12T01:26:55.437Z,21.2
2018-04-12T01:37:09.708Z,20.2
2018-04-12T01:47:23.734Z,24.7
2018-04-12T01:57:38.308Z,20.4
2018-04-12T02:07:52.604Z,29.8
2018-04-12T02:18:05.036Z,21.1
2018-04-12T02:28:16.935Z,22.0
2018-04-12T02:38:28.443Z,22.7
2018-04-12T02:48:42.841Z,20.4
2018-04-12T02:59:28.504Z,31.5
2018-04-12T03:09:40.990Z,31.6
2018-04-12T03:20:45.898Z,47.8
2018-04-12T03:31:01.115Z,51.8
2018-04-12T03:41:16.361Z,36.5
2018-04-12T03:51:30.573Z,43.4
2018-04-12T04:01:48.478Z,43.0
2018-04-12T04:12:00.195Z,49.9
2018-04-12T04:22:47.424Z,57.9
2018-04-12T04:33:00.988Z,52.6
2018-04-12T04:43:15.306Z,45.8
2018-04-12T04:53:29.905Z,39.0
2018-04-12T05:04:15.121Z,74.9
2018-04-12T05:14:29.144Z,57.0
2018-04-12T05:25:03.605Z,44.2
2018-04-12T05:35:18.117Z,37.9
2018-04-12T05:45:32.477Z,38.7
2018-04-12T05:56:17.756Z,60.4
2018-04-12T06:06:31.070Z,40.7
2018-04-12T06:17:00.859Z,44.2
2018-04-12T06:27:14.535Z,35.0
2018-04-12T06:37:28.815Z,47.2
2018-04-12T06:47:43.303Z,49.9
2018-04-12T06:57:57.430Z,38.4
2018-04-12T07:08:09.663Z,41.1
2018-04-12T07:18:26.343Z,42.8
2018-04-12T07:28:40.008Z,34.6
2018-04-12T07:38:54.013Z,36.4
2018-04-12T07:49:39.863Z,38.6
2018-04-12T08:00:25.402Z,35.9
2018-04-12T08:24:55.985Z,29.8
2018-04-12T08:35:49.709Z,36.7
2018-04-12T08:46:02.230Z,40.4
2018-04-12T08:56:17.047Z,25.2
2018-04-12T09:06:31.661Z,32.3
2018-04-12T09:16:45.814Z,31.9
2018-04-12T09:26:57.662Z,43.9
2018-04-12T09:37:33.803Z,27.8
2018-04-12T09:47:48.756Z,31.1
2018-04-12T09:58:02.766Z,23.7
2018-04-12T10:08:48.514Z,31.9
2018-04-12T10:40:07.673Z,28.9
2018-04-12T10:50:32.360Z,34.0
2018-04-12T11:02:07.926Z,35.6
2018-04-12T11:12:22.296Z,30.8
2018-04-12T11:23:13.249Z,41.7
2018-04-12T11:33:25.266Z,32.6
2018-04-12T11:43:40.376Z,34.3
2018-04-12T11:54:12.096Z,35.5
2018-04-12T12:04:27.024Z,35.6
2018-04-12T12:14:40.908Z,46.8
2018-04-12T12:24:52.620Z,43.5
2018-04-12T12:35:04.455Z,46.1
2018-04-12T12:45:19.323Z,39.1
2018-04-12T12:56:34.163Z,33.9
2018-04-12T13:07:56.966Z,31.6
2018-04-12T13:18:27.860Z,27.3
2018-04-12T13:28:41.504Z,34.6
2018-04-12T13:38:56.764Z,44.3
2018-04-12T13:49:11.436Z,39.6
2018-04-12T13:59:25.446Z,34.3
2018-04-12T14:09:39.395Z,33.8
2018-04-12T14:19:53.754Z,29.6
2018-04-12T14:30:05.788Z,31.4
2018-04-12T14:40:18.277Z,36.2
2018-04-12T14:50:33.231Z,28.4
2018-04-12T15:00:47.585Z,34.8
2018-04-12T15:11:01.673Z,27.1
2018-04-12T15:21:47.237Z,36.3
2018-04-12T15:32:01.708Z,43.0
2018-04-12T15:42:12.883Z,40.8
2018-04-12T15:52:47.259Z,33.6
2018-04-12T16:03:02.900Z,27.6
2018-04-12T16:13:16.996Z,28.0
2018-04-12T16:24:02.676Z,31.8
2018-04-12T16:34:16.679Z,30.7
2018-04-12T16:44:31.134Z,38.7
2018-04-12T16:54:45.105Z,33.2
2018-04-12T17:05:04.532Z,38.3
2018-04-12T17:16:01.793Z,40.9
2018-04-12T17:37:45.722Z,45.8
2018-04-12T17:48:24.021Z,33.0
2018-04-12T17:58:48.908Z,42.9
2018-04-12T18:09:15.043Z,40.3
2018-04-12T18:40:05.745Z,36.2
2018-04-12T18:50:52.810Z,48.9
2018-04-12T19:27:16.995Z,53.7
2018-04-12T19:37:39.216Z,42.9
2018-04-12T19:48:27.224Z,60.2
2018-04-12T20:00:18.312Z,52.8
2018-04-12T20:43:09.622Z,57.8
2018-04-12T20:54:31.223Z,48.7
2018-04-12T21:04:43.360Z,36.5
2018-04-12T21:16:20.676Z,50.8
2018-04-12T21:26:35.169Z,38.3
2018-04-12T21:37:45.788Z,49.9
2018-04-12T21:48:00.558Z,43.0
2018-04-12T21:58:15.062Z,42.6
2018-04-12T22:10:15.315Z,57.1
2018-04-12T22:20:29.046Z,41.3
2018-04-12T22:30:41.236Z,40.3
2018-04-12T22:40:55.422Z,47.9
2018-04-12T22:51:55.168Z,63.5
2018-04-12T23:02:09.487Z,39.7
2018-04-12T23:12:23.781Z,49.8
2018-04-12T23:22:37.873Z,50.3
2018-04-12T23:33:23.610Z,51.7
2018-04-12T23:43:35.761Z,58.6
2018-04-12T23:53:50.185Z,63.3
